• Join FlightAware (Why Join?)
  • Login
  • US Flag 
09:10PM EDT


 

Airport Tracker/Info


-or-


 

Live Flight TrackerFlight Track Log ✈ THA710 ✈ 22-Apr-2013 ✈ VTBS / BKK - VTCC / CNX

Flight Track Log - Related Links

Times and Time Zones

All times are in EDT time to prevent confusion due to time zone crossing. See the THA710 flight status page for this flight to view local times or setup timezone preferences in your user account.

Time Position Orientation Groundspeed Altitude Reporting Facility
EDT Latitude Longitude Course Direction KTS MPH feet Rate Location/Type
08:23PM 13.6590 100.7520 194° South 175 201 700  Level FlightAware
08:23PM 13.6390 100.7430 204° Southwest 169 194 2,000 2,220 Climbing FlightAware
08:23PM 13.6350 100.7310 251° West 180 207 2,400 1,560 Climbing FlightAware
08:24PM 13.6510 100.6960 295° West 207 238 3,600 1,680 Climbing FlightAware
08:24PM 13.6560 100.6930 330° Northwest 218 251 3,700 1,020 Climbing FlightAware
08:25PM 13.6900 100.6790 338° Northwest 268 308 4,300 1,200 Climbing FlightAware
08:25PM 13.7120 100.6700 338° Northwest 294 338 4,700 1,500 Climbing FlightAware
08:25PM 13.7410 100.6590 340° North 325 374 5,200 1,200 Climbing FlightAware
08:26PM 13.7920 100.6380 338° Northwest 373 429 5,800 1,200 Climbing FlightAware
08:26PM 13.8140 100.6260 332° Northwest 384 442 6,200 1,800 Climbing FlightAware
08:26PM 13.8340 100.6060 316° Northwest 391 450 6,700 1,920 Climbing FlightAware
08:27PM 13.8590 100.5740 309° West 392 451 7,500 2,280 Climbing FlightAware
08:27PM 13.8970 100.5250 309° West 399 459 8,800 2,460 Climbing FlightAware
08:28PM 13.9490 100.4640 311° West 409 471 10,400 2,280 Climbing FlightAware
08:29PM 14.0160 100.4370 339° North 410 472 11,900 2,160 Climbing FlightAware
08:29PM 14.0810 100.4180 344° North 417 480 13,100 2,040 Climbing FlightAware
08:30PM 14.1720 100.3900 343° North 420 483 14,800 1,920 Climbing FlightAware
08:31PM 14.2590 100.3640 344° North 427 491 16,200 1,680 Climbing FlightAware
08:31PM 14.3270 100.3370 339° North 438 504 17,100 1,440 Climbing FlightAware
08:32PM 14.4200 100.3010 339° North 447 514 18,300 1,440 Climbing FlightAware
08:33PM 14.5010 100.2700 340° North 456 525 19,300 1,380 Climbing FlightAware
08:33PM 14.5720 100.2420 339° North 459 528 20,200 1,020 Climbing FlightAware
08:34PM 14.6560 100.2090 339° North 474 545 20,800 1,260 Climbing FlightAware
08:35PM 14.7820 100.1620 340° North 474 545 22,300 1,320 Climbing FlightAware
08:36PM 14.8750 100.1280 341° North 480 552 23,000 960 Climbing FlightAware
08:37PM 14.9970 100.0840 341° North 487 560 23,900 960 Climbing FlightAware
08:37PM 15.0760 100.0550 340° North 487 560 24,600 840 Climbing FlightAware
08:38PM 15.1800 100.0160 340° North 495 570 25,100 720 Climbing FlightAware
08:39PM 15.2460 99.9920 341° North 496 571 25,500 720 Climbing FlightAware
08:40PM 15.3470 99.9540 340° North 499 574 26,100 780 Climbing FlightAware
08:40PM 15.4490 99.9180 341° North 498 573 26,800 660 Climbing FlightAware
08:41PM 15.5390 99.8840 340° North 495 570 27,100 600 Climbing FlightAware
08:42PM 15.6310 99.8510 341° North 501 577 27,700 180 Climbing FlightAware
08:44PM 15.8175 99.7990 345° North  Level Estimated
08:44PM 15.8940 99.7520 345° North 501 577 27,700  Level FlightAware
08:45PM 15.9680 99.7240 340° North 501 577 27,700  Level FlightAware
08:45PM 16.0420 99.6950 339° North 501 577 27,700 2,940 Level FlightAware
08:46PM 16.1610 99.6550 342° North 493 567 31,400 3,180 Climbing FlightAware
08:47PM 16.2780 99.6140 341° North 488 562 32,000 360 Climbing FlightAware
08:48PM 16.4000 99.5700 341° North 493 567 32,000  Level FlightAware
08:48PM 16.4680 99.5450 341° North 493 567 32,000  Level FlightAware
08:49PM 16.5790 99.5050 341° North 494 568 32,000  Level FlightAware
08:50PM 16.6700 99.4700 340° North 494 568 32,000  Level FlightAware
08:51PM 16.7430 99.4430 340° North 494 568 32,000  Level FlightAware
08:51PM 16.8850 99.3980 343° North 499 574 32,000  Level FlightAware
08:52PM 16.9780 99.3650 341° North 499 574 32,000  Level FlightAware
08:53PM 17.0520 99.3380 341° North 499 574 32,000  Level FlightAware
08:53PM 17.1080 99.3180 341° North 499 574 32,000  Level FlightAware
08:54PM 17.1820 99.2910 341° North 499 574 32,000  Level FlightAware
08:55PM 17.2560 99.2640 341° North 499 574 32,000  Level FlightAware
08:55PM 17.3300 99.2370 341° North 499 574 32,000  Level FlightAware
08:56PM 17.4040 99.2110 341° North 499 574 32,000  Level FlightAware
08:57PM 17.4970 99.1770 341° North 499 574 32,000  Level FlightAware
08:58PM 17.5710 99.1500 341° North 499 574 32,000  Level FlightAware
08:58PM 17.6460 99.1240 342° North 499 574 32,000  Level FlightAware
08:59PM 17.7200 99.0970 341° North 499 574 32,000  Level FlightAware
09:00PM 17.8130 99.0630 341° North 499 574 32,000  Level FlightAware
09:00PM 17.8870 99.0360 341° North 499 574 32,000  Level FlightAware
09:01PM 17.9420 99.0160 341° North 499 574 32,000 -5,280 Level FlightAware
09:04PM 18.2275 98.9976 356° North  Level Estimated
09:05PM 18.3346 98.9907 356° North  Level Estimated
09:05PM 18.3780 98.9620 356° North 322 371 7,600  Level FlightAware
09:05PM 18.4220 98.9620 360° North 288 331 7,100 -1,320 Descending FlightAware
09:06PM 18.4610 98.9620 360° North 268 308 6,400 -1,440 Descending FlightAware
09:06PM 18.4840 98.9620 360° North 263 303 5,900 -1,440 Descending FlightAware
09:07PM 18.5370 98.9620 360° North 251 289 4,900 -1,320 Descending FlightAware
09:07PM 18.5620 98.9620 360° North 241 277 4,500 -1,200 Descending FlightAware
09:08PM 18.5930 98.9620 360° North 233 268 3,900 -1,200 Descending FlightAware
09:08PM 18.6170 98.9630 North 230 265 3,400 -960 Descending FlightAware
09:09PM 18.6350 98.9630 360° North 230 265 3,100 -360 Descending FlightAware
09:09PM 18.6620 98.9600 354° North 230 265 3,100 -780 Level FlightAware
09:10PM 18.6980 98.9710 16° North 184 212 2,300 -1,200 Descending FlightAware
09:12PM 18.7668 98.9626 353° North  Level Estimated
09:13PM 18.7668 98.9626 128° Southeast  Level Estimated
09:14PM 18.7668 98.9626 128° Southeast  Level Estimated
09:15PM 18.7668 98.9626 128° Southeast  Level Estimated
09:16PM 18.7668 98.9626 128° Southeast  Level Estimated
09:17PM 18.7668 98.9626 128° Southeast  Level Estimated